Portada
METAR-TAF:

METAR-TAF

Aeroports :

Aeroport Internacional de Kansai

Kansai, Japó

latitud: 34-25N, longitud: 135-15E, altitud: 5 m

Observació

L'informe es va fer fa 26 minuts, a les 13:00 UTC
Vent 4 kt del Sud/Sud-Est
Temperatura 21°C
Humitat 88%
Pressió 1005 hPa
Visibilitat 10 km o més
Escasses núvols a una alçada de 3000 ft
Cel ennuvolat

METAR: RJBB 031300Z 16004KT 9999 FEW030 BKN/// 21/19 Q1005 NOSIG

Hora: 22:26 (13:26 UTC)

Pronòstic

L'informe es va fer fa 2 hores i 20 minuts, a les 11:06 UTC
Pronòstic vàlid del 03 a les 12 UTC al 04 a les 18 UTC
Vent 6 kt del Sud/Sud-Oest
Visibilitat 10 km o més
Escasses núvols a una alçada de 2500 ft

TAF: RJBB 031106Z 0312/0418 20006KT 9999 FEW025

Observacions i pronòstics meteorològics de més de 4000 aeroports (METAR i TAF).

Les estacions disponibles són els punts grocs i vermells al mapa.

Posi el ratolí al punt desitjat per veure el nom de l'estació.

Feu clic per veure les observacions i els pronòstics meteorològics.

Per canviar el mapa: feu clic els botons verds amb una creu de color negre per apropar; al botó verd amb un guió per allunyar la imatge; o en les fletxes verdes per a mapes adjacents.


METAR-TAF: